sensor_id;sensor_type;location;lat;lon;timestamp;temperature;humidity
19878;DHT22;10101;52.204;9.910;2022-09-27T00:01:17;10.20;99.90
19878;DHT22;10101;52.204;9.910;2022-09-27T00:03:44;10.20;99.90
19878;DHT22;10101;52.204;9.910;2022-09-27T00:06:14;10.30;99.90
19878;DHT22;10101;52.204;9.910;2022-09-27T00:08:42;10.20;99.90
19878;DHT22;10101;52.204;9.910;2022-09-27T00:11:14;10.20;99.90
19878;DHT22;10101;52.204;9.910;2022-09-27T00:13:43;10.20;99.90
19878;DHT22;10101;52.204;9.910;2022-09-27T00:16:10;10.20;99.90
19878;DHT22;10101;52.204;9.910;2022-09-27T00:18:37;10.20;99.90
19878;DHT22;10101;52.204;9.910;2022-09-27T00:21:05;10.20;99.90
19878;DHT22;10101;52.204;9.910;2022-09-27T00:23:34;10.20;99.90
19878;DHT22;10101;52.204;9.910;2022-09-27T00:26:01;10.20;99.90
19878;DHT22;10101;52.204;9.910;2022-09-27T00:28:28;10.20;99.90
19878;DHT22;10101;52.204;9.910;2022-09-27T00:30:55;10.20;99.90
19878;DHT22;10101;52.204;9.910;2022-09-27T00:33:22;10.30;99.90
19878;DHT22;10101;52.204;9.910;2022-09-27T00:35:49;10.20;99.90
19878;DHT22;10101;52.204;9.910;2022-09-27T00:38:16;10.20;99.90
19878;DHT22;10101;52.204;9.910;2022-09-27T00:40:44;10.20;99.90
19878;DHT22;10101;52.204;9.910;2022-09-27T00:43:17;10.20;99.90
19878;DHT22;10101;52.204;9.910;2022-09-27T00:45:48;10.20;99.90
19878;DHT22;10101;52.204;9.910;2022-09-27T00:48:18;10.20;99.90
19878;DHT22;10101;52.204;9.910;2022-09-27T00:50:49;10.20;99.90
19878;DHT22;10101;52.204;9.910;2022-09-27T00:53:22;10.20;99.90
19878;DHT22;10101;52.204;9.910;2022-09-27T00:55:53;10.20;99.90
19878;DHT22;10101;52.204;9.910;2022-09-27T00:58:25;10.20;99.90
19878;DHT22;10101;52.204;9.910;2022-09-27T01:00:57;10.20;99.90
19878;DHT22;10101;52.204;9.910;2022-09-27T01:03:31;10.20;99.90
19878;DHT22;10101;52.204;9.910;2022-09-27T01:06:00;10.20;99.90
19878;DHT22;10101;52.204;9.910;2022-09-27T01:08:28;10.20;99.90
19878;DHT22;10101;52.204;9.910;2022-09-27T01:11:08;10.20;99.90
19878;DHT22;10101;52.204;9.910;2022-09-27T01:13:42;10.20;99.90
19878;DHT22;10101;52.204;9.910;2022-09-27T01:16:18;10.20;99.90
19878;DHT22;10101;52.204;9.910;2022-09-27T01:18:59;10.20;99.90
19878;DHT22;10101;52.204;9.910;2022-09-27T01:21:39;10.20;99.90
19878;DHT22;10101;52.204;9.910;2022-09-27T01:24:24;10.20;99.90
19878;DHT22;10101;52.204;9.910;2022-09-27T01:27:15;10.10;99.90
19878;DHT22;10101;52.204;9.910;2022-09-27T01:32:35;10.10;99.90
19878;DHT22;10101;52.204;9.910;2022-09-27T01:35:07;10.10;99.90
19878;DHT22;10101;52.204;9.910;2022-09-27T01:37:40;10.10;99.90
19878;DHT22;10101;52.204;9.910;2022-09-27T01:40:14;10.20;99.90
19878;DHT22;10101;52.204;9.910;2022-09-27T01:42:46;10.10;99.90
19878;DHT22;10101;52.204;9.910;2022-09-27T01:45:20;10.20;99.90
19878;DHT22;10101;52.204;9.910;2022-09-27T01:47:51;10.20;99.90
19878;DHT22;10101;52.204;9.910;2022-09-27T01:50:23;10.10;99.90
19878;DHT22;10101;52.204;9.910;2022-09-27T01:52:54;10.10;99.90
19878;DHT22;10101;52.204;9.910;2022-09-27T01:55:23;10.10;99.90
19878;DHT22;10101;52.204;9.910;2022-09-27T01:57:56;10.10;99.90
19878;DHT22;10101;52.204;9.910;2022-09-27T02:00:24;10.10;99.90
19878;DHT22;10101;52.204;9.910;2022-09-27T02:02:56;10.10;99.90
19878;DHT22;10101;52.204;9.910;2022-09-27T02:05:29;10.20;99.90
19878;DHT22;10101;52.204;9.910;2022-09-27T02:07:58;10.20;99.90
19878;DHT22;10101;52.204;9.910;2022-09-27T02:10:29;10.20;99.90
19878;DHT22;10101;52.204;9.910;2022-09-27T02:13:00;10.20;99.90
19878;DHT22;10101;52.204;9.910;2022-09-27T02:15:33;10.30;99.90
19878;DHT22;10101;52.204;9.910;2022-09-27T02:18:14;10.10;99.90
19878;DHT22;10101;52.204;9.910;2022-09-27T02:20:47;10.10;99.90
19878;DHT22;10101;52.204;9.910;2022-09-27T02:23:20;10.10;99.90
19878;DHT22;10101;52.204;9.910;2022-09-27T02:25:52;10.10;99.90
19878;DHT22;10101;52.204;9.910;2022-09-27T02:28:24;10.20;99.90
19878;DHT22;10101;52.204;9.910;2022-09-27T02:30:53;10.10;99.90
19878;DHT22;10101;52.204;9.910;2022-09-27T02:33:25;10.10;99.90
19878;DHT22;10101;52.204;9.910;2022-09-27T02:35:53;10.10;99.90
19878;DHT22;10101;52.204;9.910;2022-09-27T02:38:20;10.10;99.90
19878;DHT22;10101;52.204;9.910;2022-09-27T02:40:47;10.10;99.90
19878;DHT22;10101;52.204;9.910;2022-09-27T02:43:16;10.10;99.90
19878;DHT22;10101;52.204;9.910;2022-09-27T02:45:53;10.10;99.90
19878;DHT22;10101;52.204;9.910;2022-09-27T02:48:30;10.10;99.90
19878;DHT22;10101;52.204;9.910;2022-09-27T02:51:12;10.00;99.90
19878;DHT22;10101;52.204;9.910;2022-09-27T02:53:52;10.10;99.90
19878;DHT22;10101;52.204;9.910;2022-09-27T02:56:25;10.10;99.90
19878;DHT22;10101;52.204;9.910;2022-09-27T02:59:00;10.10;99.90
19878;DHT22;10101;52.204;9.910;2022-09-27T03:01:35;10.10;99.90
19878;DHT22;10101;52.204;9.910;2022-09-27T03:04:10;10.10;99.90
19878;DHT22;10101;52.204;9.910;2022-09-27T03:06:42;10.10;99.90
19878;DHT22;10101;52.204;9.910;2022-09-27T03:09:16;10.20;99.90
19878;DHT22;10101;52.204;9.910;2022-09-27T03:11:43;10.10;99.90
19878;DHT22;10101;52.204;9.910;2022-09-27T03:14:10;10.10;99.90
19878;DHT22;10101;52.204;9.910;2022-09-27T03:16:37;10.00;99.90
19878;DHT22;10101;52.204;9.910;2022-09-27T03:19:05;10.00;99.90
19878;DHT22;10101;52.204;9.910;2022-09-27T03:21:32;10.00;99.90
19878;DHT22;10101;52.204;9.910;2022-09-27T03:23:59;10.00;99.90
19878;DHT22;10101;52.204;9.910;2022-09-27T03:26:26;10.00;99.90
19878;DHT22;10101;52.204;9.910;2022-09-27T03:28:53;9.90;99.90
19878;DHT22;10101;52.204;9.910;2022-09-27T03:31:20;10.00;99.90
19878;DHT22;10101;52.204;9.910;2022-09-27T03:33:47;9.90;99.90
19878;DHT22;10101;52.204;9.910;2022-09-27T03:36:15;9.90;99.90
19878;DHT22;10101;52.204;9.910;2022-09-27T03:38:42;9.90;99.90
19878;DHT22;10101;52.204;9.910;2022-09-27T03:41:09;9.90;99.90
19878;DHT22;10101;52.204;9.910;2022-09-27T03:43:36;9.90;99.90
19878;DHT22;10101;52.204;9.910;2022-09-27T03:46:03;9.80;99.90
19878;DHT22;10101;52.204;9.910;2022-09-27T03:48:30;9.90;99.90
19878;DHT22;10101;52.204;9.910;2022-09-27T03:50:57;9.80;99.90
19878;DHT22;10101;52.204;9.910;2022-09-27T03:53:25;9.80;99.90
19878;DHT22;10101;52.204;9.910;2022-09-27T03:55:52;9.80;99.90
19878;DHT22;10101;52.204;9.910;2022-09-27T03:58:19;9.80;99.90
19878;DHT22;10101;52.204;9.910;2022-09-27T04:00:46;9.80;99.90
19878;DHT22;10101;52.204;9.910;2022-09-27T04:03:13;9.70;99.90
19878;DHT22;10101;52.204;9.910;2022-09-27T04:05:40;9.70;99.90
19878;DHT22;10101;52.204;9.910;2022-09-27T04:08:07;9.70;99.90
19878;DHT22;10101;52.204;9.910;2022-09-27T04:10:37;9.70;99.90
19878;DHT22;10101;52.204;9.910;2022-09-27T04:13:04;9.70;99.90
19878;DHT22;10101;52.204;9.910;2022-09-27T04:15:31;9.70;99.90
19878;DHT22;10101;52.204;9.910;2022-09-27T04:17:57;9.70;99.90
19878;DHT22;10101;52.204;9.910;2022-09-27T04:20:24;9.60;99.90
19878;DHT22;10101;52.204;9.910;2022-09-27T04:22:51;9.60;99.90
19878;DHT22;10101;52.204;9.910;2022-09-27T04:25:18;9.60;99.90
19878;DHT22;10101;52.204;9.910;2022-09-27T04:27:47;9.60;99.90
19878;DHT22;10101;52.204;9.910;2022-09-27T04:30:16;9.60;99.90
19878;DHT22;10101;52.204;9.910;2022-09-27T04:32:44;9.60;99.90
19878;DHT22;10101;52.204;9.910;2022-09-27T04:35:11;9.60;99.90
19878;DHT22;10101;52.204;9.910;2022-09-27T04:37:57;9.60;99.90
19878;DHT22;10101;52.204;9.910;2022-09-27T04:40:24;9.60;99.90
19878;DHT22;10101;52.204;9.910;2022-09-27T04:42:53;9.50;99.90
19878;DHT22;10101;52.204;9.910;2022-09-27T04:45:20;9.50;99.90
19878;DHT22;10101;52.204;9.910;2022-09-27T04:47:48;9.50;99.90
19878;DHT22;10101;52.204;9.910;2022-09-27T04:50:16;9.50;99.90
19878;DHT22;10101;52.204;9.910;2022-09-27T04:52:49;9.40;99.90
19878;DHT22;10101;52.204;9.910;2022-09-27T04:55:16;9.40;99.90
19878;DHT22;10101;52.204;9.910;2022-09-27T04:57:43;9.40;99.90
19878;DHT22;10101;52.204;9.910;2022-09-27T05:00:13;9.40;99.90
19878;DHT22;10101;52.204;9.910;2022-09-27T05:02:41;9.40;99.90
19878;DHT22;10101;52.204;9.910;2022-09-27T05:05:09;9.40;99.90
19878;DHT22;10101;52.204;9.910;2022-09-27T05:07:36;9.40;99.90
19878;DHT22;10101;52.204;9.910;2022-09-27T05:10:04;9.30;99.90
19878;DHT22;10101;52.204;9.910;2022-09-27T05:12:31;9.30;99.90
19878;DHT22;10101;52.204;9.910;2022-09-27T05:14:58;9.30;99.90
19878;DHT22;10101;52.204;9.910;2022-09-27T05:17:26;9.40;99.90
19878;DHT22;10101;52.204;9.910;2022-09-27T05:19:53;9.30;99.90
19878;DHT22;10101;52.204;9.910;2022-09-27T05:22:20;9.40;99.90
19878;DHT22;10101;52.204;9.910;2022-09-27T05:24:47;9.40;99.90
19878;DHT22;10101;52.204;9.910;2022-09-27T05:27:14;9.30;99.90
19878;DHT22;10101;52.204;9.910;2022-09-27T05:29:45;9.30;99.90
19878;DHT22;10101;52.204;9.910;2022-09-27T05:32:12;9.40;99.90
19878;DHT22;10101;52.204;9.910;2022-09-27T05:34:41;9.40;99.90
19878;DHT22;10101;52.204;9.910;2022-09-27T05:37:08;9.40;99.90
19878;DHT22;10101;52.204;9.910;2022-09-27T05:39:35;9.40;99.90
19878;DHT22;10101;52.204;9.910;2022-09-27T05:42:02;9.40;99.90
19878;DHT22;10101;52.204;9.910;2022-09-27T05:44:29;9.40;99.90
19878;DHT22;10101;52.204;9.910;2022-09-27T05:46:56;9.40;99.90
19878;DHT22;10101;52.204;9.910;2022-09-27T05:49:24;9.40;99.90
19878;DHT22;10101;52.204;9.910;2022-09-27T05:51:52;9.40;99.90
19878;DHT22;10101;52.204;9.910;2022-09-27T05:54:19;9.40;99.90
19878;DHT22;10101;52.204;9.910;2022-09-27T05:56:46;9.40;99.90
19878;DHT22;10101;52.204;9.910;2022-09-27T05:59:14;9.40;99.90
19878;DHT22;10101;52.204;9.910;2022-09-27T06:01:41;9.40;99.90
19878;DHT22;10101;52.204;9.910;2022-09-27T06:04:08;9.40;99.90
19878;DHT22;10101;52.204;9.910;2022-09-27T06:06:35;9.40;99.90
19878;DHT22;10101;52.204;9.910;2022-09-27T06:09:03;9.40;99.90
19878;DHT22;10101;52.204;9.910;2022-09-27T06:11:30;9.40;99.90
19878;DHT22;10101;52.204;9.910;2022-09-27T06:13:57;9.40;99.90
19878;DHT22;10101;52.204;9.910;2022-09-27T06:16:24;9.40;99.90
19878;DHT22;10101;52.204;9.910;2022-09-27T06:18:51;9.40;99.90
19878;DHT22;10101;52.204;9.910;2022-09-27T06:21:18;9.40;99.90
19878;DHT22;10101;52.204;9.910;2022-09-27T06:23:45;9.40;99.90
19878;DHT22;10101;52.204;9.910;2022-09-27T06:26:14;9.40;99.90
19878;DHT22;10101;52.204;9.910;2022-09-27T06:28:42;9.40;99.90
19878;DHT22;10101;52.204;9.910;2022-09-27T06:31:10;9.50;99.90
19878;DHT22;10101;52.204;9.910;2022-09-27T06:33:37;9.40;99.90
19878;DHT22;10101;52.204;9.910;2022-09-27T06:36:05;9.40;99.90
19878;DHT22;10101;52.204;9.910;2022-09-27T06:38:32;9.40;99.90
19878;DHT22;10101;52.204;9.910;2022-09-27T06:41:00;9.40;99.90
19878;DHT22;10101;52.204;9.910;2022-09-27T06:43:29;9.40;99.90
19878;DHT22;10101;52.204;9.910;2022-09-27T06:45:58;9.50;99.90
19878;DHT22;10101;52.204;9.910;2022-09-27T06:48:30;9.30;99.90
19878;DHT22;10101;52.204;9.910;2022-09-27T06:50:57;9.40;99.90
19878;DHT22;10101;52.204;9.910;2022-09-27T06:53:25;9.50;99.90
19878;DHT22;10101;52.204;9.910;2022-09-27T06:55:57;9.50;99.90
19878;DHT22;10101;52.204;9.910;2022-09-27T06:58:24;9.50;99.90
19878;DHT22;10101;52.204;9.910;2022-09-27T07:01:10;9.50;99.90
19878;DHT22;10101;52.204;9.910;2022-09-27T07:03:37;9.60;99.90
19878;DHT22;10101;52.204;9.910;2022-09-27T07:06:10;9.60;99.90
19878;DHT22;10101;52.204;9.910;2022-09-27T07:08:37;9.60;99.90
19878;DHT22;10101;52.204;9.910;2022-09-27T07:11:06;9.60;99.90
19878;DHT22;10101;52.204;9.910;2022-09-27T07:13:33;9.60;99.90
19878;DHT22;10101;52.204;9.910;2022-09-27T07:16:05;9.80;99.90
19878;DHT22;10101;52.204;9.910;2022-09-27T07:18:33;9.60;99.90
19878;DHT22;10101;52.204;9.910;2022-09-27T07:21:00;9.60;99.90
19878;DHT22;10101;52.204;9.910;2022-09-27T07:23:27;9.60;99.90
19878;DHT22;10101;52.204;9.910;2022-09-27T07:25:54;9.60;99.90
19878;DHT22;10101;52.204;9.910;2022-09-27T07:28:21;9.70;99.90
19878;DHT22;10101;52.204;9.910;2022-09-27T07:30:52;9.70;99.90
19878;DHT22;10101;52.204;9.910;2022-09-27T07:33:20;9.70;99.90
19878;DHT22;10101;52.204;9.910;2022-09-27T07:35:48;9.70;99.90
19878;DHT22;10101;52.204;9.910;2022-09-27T07:38:15;9.70;99.90
19878;DHT22;10101;52.204;9.910;2022-09-27T07:40:42;9.70;99.90
19878;DHT22;10101;52.204;9.910;2022-09-27T07:43:10;9.60;99.90
19878;DHT22;10101;52.204;9.910;2022-09-27T07:45:38;9.60;99.90
19878;DHT22;10101;52.204;9.910;2022-09-27T07:48:05;9.50;99.90
19878;DHT22;10101;52.204;9.910;2022-09-27T07:50:32;9.50;99.90
19878;DHT22;10101;52.204;9.910;2022-09-27T07:53:00;9.40;99.90
19878;DHT22;10101;52.204;9.910;2022-09-27T07:55:29;9.50;99.90
19878;DHT22;10101;52.204;9.910;2022-09-27T07:58:02;9.60;99.90
19878;DHT22;10101;52.204;9.910;2022-09-27T08:00:29;9.60;99.90
19878;DHT22;10101;52.204;9.910;2022-09-27T08:02:56;9.70;99.90
19878;DHT22;10101;52.204;9.910;2022-09-27T08:05:23;9.70;99.90
19878;DHT22;10101;52.204;9.910;2022-09-27T08:07:53;9.70;99.90
19878;DHT22;10101;52.204;9.910;2022-09-27T08:10:23;9.60;99.90
19878;DHT22;10101;52.204;9.910;2022-09-27T08:12:51;9.50;99.90
19878;DHT22;10101;52.204;9.910;2022-09-27T08:15:18;9.40;99.90
19878;DHT22;10101;52.204;9.910;2022-09-27T08:17:45;9.30;99.90
19878;DHT22;10101;52.204;9.910;2022-09-27T08:20:12;9.30;99.90
19878;DHT22;10101;52.204;9.910;2022-09-27T08:22:40;9.30;99.90
19878;DHT22;10101;52.204;9.910;2022-09-27T08:25:08;9.30;99.90
19878;DHT22;10101;52.204;9.910;2022-09-27T08:27:36;9.40;99.90
19878;DHT22;10101;52.204;9.910;2022-09-27T08:30:04;9.40;99.90
19878;DHT22;10101;52.204;9.910;2022-09-27T08:32:31;9.40;99.90
19878;DHT22;10101;52.204;9.910;2022-09-27T08:34:58;9.50;99.90
19878;DHT22;10101;52.204;9.910;2022-09-27T08:37:25;9.50;99.90
19878;DHT22;10101;52.204;9.910;2022-09-27T08:39:52;9.70;99.90
19878;DHT22;10101;52.204;9.910;2022-09-27T08:42:24;9.70;99.90
19878;DHT22;10101;52.204;9.910;2022-09-27T08:45:00;9.90;99.90
19878;DHT22;10101;52.204;9.910;2022-09-27T08:47:33;10.00;99.90
19878;DHT22;10101;52.204;9.910;2022-09-27T08:50:09;10.10;99.90
19878;DHT22;10101;52.204;9.910;2022-09-27T08:52:43;9.90;99.90
19878;DHT22;10101;52.204;9.910;2022-09-27T08:55:20;10.00;99.90
19878;DHT22;10101;52.204;9.910;2022-09-27T08:57:52;9.90;99.90
19878;DHT22;10101;52.204;9.910;2022-09-27T09:00:22;10.00;99.90
19878;DHT22;10101;52.204;9.910;2022-09-27T09:02:48;10.00;99.90
19878;DHT22;10101;52.204;9.910;2022-09-27T09:05:27;10.10;99.90
19878;DHT22;10101;52.204;9.910;2022-09-27T09:08:14;10.20;99.90
19878;DHT22;10101;52.204;9.910;2022-09-27T09:10:56;10.30;99.90
19878;DHT22;10101;52.204;9.910;2022-09-27T09:14:00;10.30;99.90
19878;DHT22;10101;52.204;9.910;2022-09-27T09:16:41;10.30;99.90
19878;DHT22;10101;52.204;9.910;2022-09-27T09:19:21;10.40;99.90
19878;DHT22;10101;52.204;9.910;2022-09-27T09:21:58;10.30;99.90
19878;DHT22;10101;52.204;9.910;2022-09-27T09:27:27;10.40;99.90
19878;DHT22;10101;52.204;9.910;2022-09-27T09:30:04;10.30;99.90
19878;DHT22;10101;52.204;9.910;2022-09-27T09:32:44;10.40;99.90
19878;DHT22;10101;52.204;9.910;2022-09-27T09:35:19;10.40;99.90
19878;DHT22;10101;52.204;9.910;2022-09-27T09:37:50;10.50;99.90
19878;DHT22;10101;52.204;9.910;2022-09-27T09:40:21;10.80;99.90
19878;DHT22;10101;52.204;9.910;2022-09-27T09:42:54;10.70;99.90
19878;DHT22;10101;52.204;9.910;2022-09-27T09:45:26;10.70;99.90
19878;DHT22;10101;52.204;9.910;2022-09-27T09:47:58;10.90;99.90
19878;DHT22;10101;52.204;9.910;2022-09-27T09:50:39;10.90;99.90
19878;DHT22;10101;52.204;9.910;2022-09-27T09:53:14;11.00;99.90
19878;DHT22;10101;52.204;9.910;2022-09-27T09:55:45;11.10;99.90
19878;DHT22;10101;52.204;9.910;2022-09-27T09:58:20;11.10;99.90
19878;DHT22;10101;52.204;9.910;2022-09-27T10:00:50;11.20;99.90
19878;DHT22;10101;52.204;9.910;2022-09-27T10:03:19;11.30;99.90
19878;DHT22;10101;52.204;9.910;2022-09-27T10:05:46;11.30;99.90
19878;DHT22;10101;52.204;9.910;2022-09-27T10:08:17;11.40;99.90
19878;DHT22;10101;52.204;9.910;2022-09-27T10:10:45;11.50;99.90
19878;DHT22;10101;52.204;9.910;2022-09-27T10:13:14;11.50;99.90
19878;DHT22;10101;52.204;9.910;2022-09-27T10:15:43;11.60;99.90
19878;DHT22;10101;52.204;9.910;2022-09-27T10:18:18;11.80;99.90
19878;DHT22;10101;52.204;9.910;2022-09-27T10:20:49;11.90;99.90
19878;DHT22;10101;52.204;9.910;2022-09-27T10:23:19;12.00;99.90
19878;DHT22;10101;52.204;9.910;2022-09-27T10:25:49;12.00;99.90
19878;DHT22;10101;52.204;9.910;2022-09-27T10:28:32;12.10;99.90
19878;DHT22;10101;52.204;9.910;2022-09-27T10:31:03;12.20;99.90
19878;DHT22;10101;52.204;9.910;2022-09-27T10:33:32;12.30;99.90
19878;DHT22;10101;52.204;9.910;2022-09-27T10:36:00;12.20;99.90
19878;DHT22;10101;52.204;9.910;2022-09-27T10:38:29;12.50;99.90
19878;DHT22;10101;52.204;9.910;2022-09-27T10:40:58;12.50;99.90
19878;DHT22;10101;52.204;9.910;2022-09-27T10:43:41;12.60;99.90
19878;DHT22;10101;52.204;9.910;2022-09-27T10:46:20;12.90;99.90
19878;DHT22;10101;52.204;9.910;2022-09-27T10:49:10;12.70;99.90
19878;DHT22;10101;52.204;9.910;2022-09-27T10:51:42;12.50;99.90
19878;DHT22;10101;52.204;9.910;2022-09-27T10:54:18;12.60;99.90
19878;DHT22;10101;52.204;9.910;2022-09-27T10:56:54;13.00;99.90
19878;DHT22;10101;52.204;9.910;2022-09-27T10:59:21;12.70;99.90
19878;DHT22;10101;52.204;9.910;2022-09-27T11:01:49;12.80;99.90
19878;DHT22;10101;52.204;9.910;2022-09-27T11:04:23;12.70;99.90
19878;DHT22;10101;52.204;9.910;2022-09-27T11:06:51;13.10;99.90
19878;DHT22;10101;52.204;9.910;2022-09-27T11:09:31;13.30;99.90
19878;DHT22;10101;52.204;9.910;2022-09-27T11:12:07;12.80;99.90
19878;DHT22;10101;52.204;9.910;2022-09-27T11:14:35;12.80;99.90
19878;DHT22;10101;52.204;9.910;2022-09-27T11:17:09;13.00;99.90
19878;DHT22;10101;52.204;9.910;2022-09-27T11:19:52;12.90;99.90
19878;DHT22;10101;52.204;9.910;2022-09-27T11:25:19;13.50;99.90
19878;DHT22;10101;52.204;9.910;2022-09-27T11:27:58;13.10;99.90
19878;DHT22;10101;52.204;9.910;2022-09-27T11:30:30;12.90;99.90
19878;DHT22;10101;52.204;9.910;2022-09-27T11:33:14;12.90;99.90
19878;DHT22;10101;52.204;9.910;2022-09-27T11:35:54;12.80;99.90
19878;DHT22;10101;52.204;9.910;2022-09-27T11:38:29;12.90;99.90
19878;DHT22;10101;52.204;9.910;2022-09-27T11:41:23;13.00;99.90
19878;DHT22;10101;52.204;9.910;2022-09-27T11:44:06;12.80;99.90
19878;DHT22;10101;52.204;9.910;2022-09-27T11:46:46;12.70;99.90
19878;DHT22;10101;52.204;9.910;2022-09-27T11:52:33;13.10;99.90
19878;DHT22;10101;52.204;9.910;2022-09-27T11:55:18;13.20;99.90
19878;DHT22;10101;52.204;9.910;2022-09-27T11:57:49;13.10;99.90
19878;DHT22;10101;52.204;9.910;2022-09-27T12:00:19;13.20;99.90
19878;DHT22;10101;52.204;9.910;2022-09-27T12:05:55;13.00;99.90
19878;DHT22;10101;52.204;9.910;2022-09-27T12:08:36;12.30;99.90
19878;DHT22;10101;52.204;9.910;2022-09-27T12:11:13;12.00;99.90
19878;DHT22;10101;52.204;9.910;2022-09-27T12:13:45;11.90;99.90
19878;DHT22;10101;52.204;9.910;2022-09-27T12:16:15;11.90;99.90
19878;DHT22;10101;52.204;9.910;2022-09-27T12:18:43;12.40;99.90
19878;DHT22;10101;52.204;9.910;2022-09-27T12:21:12;12.50;99.90
19878;DHT22;10101;52.204;9.910;2022-09-27T12:23:44;12.50;99.90
19878;DHT22;10101;52.204;9.910;2022-09-27T12:26:14;12.60;99.90
19878;DHT22;10101;52.204;9.910;2022-09-27T12:28:48;13.00;99.90
19878;DHT22;10101;52.204;9.910;2022-09-27T12:31:19;12.70;99.90
19878;DHT22;10101;52.204;9.910;2022-09-27T12:33:53;12.70;99.90
19878;DHT22;10101;52.204;9.910;2022-09-27T12:36:27;12.70;99.90
19878;DHT22;10101;52.204;9.910;2022-09-27T12:39:03;12.80;99.90
19878;DHT22;10101;52.204;9.910;2022-09-27T12:41:35;13.10;99.90
19878;DHT22;10101;52.204;9.910;2022-09-27T12:44:04;13.10;99.90
19878;DHT22;10101;52.204;9.910;2022-09-27T12:46:39;12.70;99.90
19878;DHT22;10101;52.204;9.910;2022-09-27T12:49:12;11.70;99.90
19878;DHT22;10101;52.204;9.910;2022-09-27T12:51:44;10.90;99.90
19878;DHT22;10101;52.204;9.910;2022-09-27T12:57:17;11.00;99.90
19878;DHT22;10101;52.204;9.910;2022-09-27T13:00:00;10.90;99.90
19878;DHT22;10101;52.204;9.910;2022-09-27T13:06:00;10.70;99.90
19878;DHT22;10101;52.204;9.910;2022-09-27T13:08:48;10.70;99.90
19878;DHT22;10101;52.204;9.910;2022-09-27T13:11:23;10.70;99.90
19878;DHT22;10101;52.204;9.910;2022-09-27T13:13:54;10.90;99.90
19878;DHT22;10101;52.204;9.910;2022-09-27T13:16:22;10.90;99.90
19878;DHT22;10101;52.204;9.910;2022-09-27T13:18:52;11.00;99.90
19878;DHT22;10101;52.204;9.910;2022-09-27T13:21:55;11.10;99.90
19878;DHT22;10101;52.204;9.910;2022-09-27T13:24:44;11.30;99.90
19878;DHT22;10101;52.204;9.910;2022-09-27T13:27:39;11.30;99.90
19878;DHT22;10101;52.204;9.910;2022-09-27T13:30:42;11.30;99.90
19878;DHT22;10101;52.204;9.910;2022-09-27T13:33:39;11.10;99.90
19878;DHT22;10101;52.204;9.910;2022-09-27T13:36:23;11.00;99.90
19878;DHT22;10101;52.204;9.910;2022-09-27T13:39:15;10.90;99.90
19878;DHT22;10101;52.204;9.910;2022-09-27T13:42:05;10.80;99.90
19878;DHT22;10101;52.204;9.910;2022-09-27T13:44:42;10.50;99.90
19878;DHT22;10101;52.204;9.910;2022-09-27T13:47:24;10.30;99.90
19878;DHT22;10101;52.204;9.910;2022-09-27T13:49:58;10.10;99.90
19878;DHT22;10101;52.204;9.910;2022-09-27T13:52:30;10.00;99.90
19878;DHT22;10101;52.204;9.910;2022-09-27T13:54:59;9.80;99.90
19878;DHT22;10101;52.204;9.910;2022-09-27T13:57:49;9.70;99.90
19878;DHT22;10101;52.204;9.910;2022-09-27T14:00:20;9.70;99.90
19878;DHT22;10101;52.204;9.910;2022-09-27T14:02:58;9.40;99.90
19878;DHT22;10101;52.204;9.910;2022-09-27T14:05:29;9.20;99.90
19878;DHT22;10101;52.204;9.910;2022-09-27T14:07:58;9.00;99.90
19878;DHT22;10101;52.204;9.910;2022-09-27T14:10:28;8.80;99.90
19878;DHT22;10101;52.204;9.910;2022-09-27T14:12:56;8.60;99.90
19878;DHT22;10101;52.204;9.910;2022-09-27T14:15:28;8.50;99.90
19878;DHT22;10101;52.204;9.910;2022-09-27T14:17:56;8.50;99.90
19878;DHT22;10101;52.204;9.910;2022-09-27T14:20:34;8.50;99.90
19878;DHT22;10101;52.204;9.910;2022-09-27T14:23:03;8.50;99.90
19878;DHT22;10101;52.204;9.910;2022-09-27T14:25:30;8.50;99.90
19878;DHT22;10101;52.204;9.910;2022-09-27T14:27:57;8.50;99.90
19878;DHT22;10101;52.204;9.910;2022-09-27T14:30:27;8.50;99.90
19878;DHT22;10101;52.204;9.910;2022-09-27T14:32:55;8.50;99.90
19878;DHT22;10101;52.204;9.910;2022-09-27T14:35:25;8.60;99.90
19878;DHT22;10101;52.204;9.910;2022-09-27T14:38:12;8.70;99.90
19878;DHT22;10101;52.204;9.910;2022-09-27T14:40:43;8.90;99.90
19878;DHT22;10101;52.204;9.910;2022-09-27T14:43:14;9.00;99.90
19878;DHT22;10101;52.204;9.910;2022-09-27T14:45:43;9.10;99.90
19878;DHT22;10101;52.204;9.910;2022-09-27T14:48:21;8.90;99.90
19878;DHT22;10101;52.204;9.910;2022-09-27T14:50:53;9.10;99.90
19878;DHT22;10101;52.204;9.910;2022-09-27T14:53:21;9.20;99.90
19878;DHT22;10101;52.204;9.910;2022-09-27T14:55:49;9.30;99.90
19878;DHT22;10101;52.204;9.910;2022-09-27T14:58:20;9.40;99.90
19878;DHT22;10101;52.204;9.910;2022-09-27T15:00:49;9.40;99.90
19878;DHT22;10101;52.204;9.910;2022-09-27T15:03:20;9.50;99.90
19878;DHT22;10101;52.204;9.910;2022-09-27T15:05:49;9.50;99.90
19878;DHT22;10101;52.204;9.910;2022-09-27T15:08:17;9.40;99.90
19878;DHT22;10101;52.204;9.910;2022-09-27T15:10:44;9.50;99.90
19878;DHT22;10101;52.204;9.910;2022-09-27T15:13:14;9.40;99.90
19878;DHT22;10101;52.204;9.910;2022-09-27T15:15:42;9.30;99.90
19878;DHT22;10101;52.204;9.910;2022-09-27T15:18:32;9.20;99.90
19878;DHT22;10101;52.204;9.910;2022-09-27T15:20:59;9.10;99.90
19878;DHT22;10101;52.204;9.910;2022-09-27T15:23:29;9.00;99.90
19878;DHT22;10101;52.204;9.910;2022-09-27T15:25:59;9.00;99.90
19878;DHT22;10101;52.204;9.910;2022-09-27T15:28:28;8.80;99.90
19878;DHT22;10101;52.204;9.910;2022-09-27T15:30:56;8.60;99.90
19878;DHT22;10101;52.204;9.910;2022-09-27T15:33:26;8.50;99.90
19878;DHT22;10101;52.204;9.910;2022-09-27T15:35:56;8.40;99.90
19878;DHT22;10101;52.204;9.910;2022-09-27T15:38:29;8.40;99.90
19878;DHT22;10101;52.204;9.910;2022-09-27T15:41:11;8.40;99.90
19878;DHT22;10101;52.204;9.910;2022-09-27T15:43:45;8.30;99.90
19878;DHT22;10101;52.204;9.910;2022-09-27T15:46:36;8.30;99.90
19878;DHT22;10101;52.204;9.910;2022-09-27T15:49:26;8.20;99.90
19878;DHT22;10101;52.204;9.910;2022-09-27T15:51:58;8.20;99.90
19878;DHT22;10101;52.204;9.910;2022-09-27T15:54:26;8.20;99.90
19878;DHT22;10101;52.204;9.910;2022-09-27T15:56:55;8.10;99.90
19878;DHT22;10101;52.204;9.910;2022-09-27T15:59:26;8.20;99.90
19878;DHT22;10101;52.204;9.910;2022-09-27T16:01:55;8.30;99.90
19878;DHT22;10101;52.204;9.910;2022-09-27T16:04:23;8.30;99.90
19878;DHT22;10101;52.204;9.910;2022-09-27T16:06:50;8.40;99.90
19878;DHT22;10101;52.204;9.910;2022-09-27T16:09:20;8.30;99.90
19878;DHT22;10101;52.204;9.910;2022-09-27T16:11:48;8.30;99.90
19878;DHT22;10101;52.204;9.910;2022-09-27T16:14:16;8.40;99.90
19878;DHT22;10101;52.204;9.910;2022-09-27T16:16:46;8.40;99.90
19878;DHT22;10101;52.204;9.910;2022-09-27T16:19:14;8.40;99.90
19878;DHT22;10101;52.204;9.910;2022-09-27T16:21:41;8.40;99.90
19878;DHT22;10101;52.204;9.910;2022-09-27T16:24:08;8.50;99.90
19878;DHT22;10101;52.204;9.910;2022-09-27T16:26:37;8.40;99.90